Fort Irwin, California
Current Conditions -  °F | °C
As of 2:55 PM on Wednesday 22 Oct 2014 (Local Time) from KBYS Reporting Station
Clear Clear  
Wind Chill: 80°   Ceiling: Unl
Heat Index: 80°   Visibility: 10mi
Dew Point: 25°   Wind: 9mph
Humidity: 13%   Direction: 100°E
Pressure: 30"   Gusts: 12mph
Location:  35.12°N, 116.9°W
Report Text: KBYS 222155Z AUTO 10008G10KT 10SM CLR 27/M04 A3000 RMK AO2 SLP132 T02651041 $
Loading
Personal Weather Stations






























Interactive Weather Map
Tropical Storm Tracking
New forecast layout! Learn more

10-Day Weather Forecast

Advertisements
Track Severe Weather on mobile